createdAt,value
2022-08-12T00:00:04.519Z,2.27
2022-08-12T00:01:07.934Z,1.88
2022-08-12T00:02:10.884Z,1.87
2022-08-12T00:03:14.858Z,2.98
2022-08-12T00:04:18.832Z,1.87
2022-08-12T00:05:22.003Z,1.93
2022-08-12T00:06:24.946Z,2.57
2022-08-12T00:07:28.115Z,1.57
2022-08-12T00:08:37.127Z,2.21
2022-08-12T00:09:36.936Z,2.93
2022-08-12T00:10:39.706Z,1.43
2022-08-12T00:11:43.102Z,2.02
2022-08-12T00:12:46.179Z,1.56
2022-08-12T00:13:49.246Z,1.73
2022-08-12T00:14:51.920Z,2.55
2022-08-12T00:15:55.202Z,1.58
2022-08-12T00:16:58.076Z,1.14
2022-08-12T00:18:01.462Z,2.38
2022-08-12T00:19:04.655Z,2.05
2022-08-12T00:20:07.420Z,1.68
2022-08-12T00:21:10.394Z,1.98
2022-08-12T00:22:13.164Z,2.58
2022-08-12T00:23:16.048Z,1.40
2022-08-12T00:24:18.810Z,1.71
2022-08-12T00:25:21.480Z,1.97
2022-08-12T00:26:25.687Z,1.35
2022-08-12T00:27:43.313Z,2.37
2022-08-12T00:28:32.765Z,1.29
2022-08-12T00:29:35.438Z,1.46
2022-08-12T00:30:38.104Z,1.07
2022-08-12T00:31:40.769Z,1.78
2022-08-12T00:32:47.664Z,1.32
2022-08-12T00:33:52.266Z,1.88
2022-08-12T00:34:52.011Z,1.05
2022-08-12T00:35:54.729Z,1.39
2022-08-12T00:37:07.253Z,1.75
2022-08-12T00:38:03.355Z,1.23
2022-08-12T00:39:06.229Z,1.22
2022-08-12T00:40:11.241Z,2.26
2022-08-12T00:41:13.617Z,1.60
2022-08-12T00:42:16.590Z,1.44
2022-08-12T00:43:19.566Z,1.36
2022-08-12T00:44:22.842Z,1.43
2022-08-12T00:45:27.370Z,1.35
2022-08-12T00:46:30.436Z,1.37
2022-08-12T00:47:33.107Z,2.33
2022-08-12T00:48:35.784Z,2.26
2022-08-12T00:49:38.448Z,2.15
2022-08-12T00:50:41.115Z,2.08
2022-08-12T00:51:43.900Z,2.12
2022-08-12T00:52:47.480Z,1.41
2022-08-12T00:53:50.466Z,1.57
2022-08-12T00:54:53.233Z,2.93
2022-08-12T00:55:56.100Z,1.48
2022-08-12T00:56:58.780Z,0.83
2022-08-12T00:58:01.443Z,0.97
2022-08-12T00:59:04.219Z,0.92
2022-08-12T01:00:06.987Z,0.72
2022-08-12T01:01:09.839Z,1.07
2022-08-12T01:02:12.870Z,1.57
2022-08-12T01:03:15.818Z,1.09
2022-08-12T01:04:18.513Z,0.79
2022-08-12T01:05:21.157Z,1.51
2022-08-12T01:06:24.132Z,0.98
2022-08-12T01:07:27.066Z,0.87
2022-08-12T01:08:29.779Z,1.21
2022-08-12T01:09:32.469Z,1.88
2022-08-12T01:10:35.014Z,2.46
2022-08-12T01:11:37.888Z,1.31
2022-08-12T01:12:41.242Z,1.62
2022-08-12T01:13:43.943Z,1.73
2022-08-12T01:14:46.831Z,2.24
2022-08-12T01:15:49.675Z,1.12
2022-08-12T01:16:53.494Z,1.31
2022-08-12T01:17:56.367Z,1.94
2022-08-12T01:18:59.233Z,1.28
2022-08-12T01:20:02.022Z,1.95
2022-08-12T01:21:05.087Z,1.53
2022-08-12T01:22:08.279Z,1.00
2022-08-12T01:23:11.149Z,1.74
2022-08-12T01:24:30.442Z,3.73
2022-08-12T01:25:19.057Z,1.91
2022-08-12T01:26:22.026Z,2.84
2022-08-12T01:27:25.002Z,3.67
2022-08-12T01:28:27.875Z,2.38
2022-08-12T01:29:32.842Z,2.88
2022-08-12T01:30:34.758Z,3.64
2022-08-12T01:31:37.728Z,3.61
2022-08-12T01:32:40.576Z,3.57
2022-08-12T01:33:43.475Z,3.89
2022-08-12T01:34:46.456Z,1.62
2022-08-12T01:36:07.938Z,1.83
2022-08-12T01:36:53.633Z,2.41
2022-08-12T01:37:56.408Z,2.81
2022-08-12T01:38:59.396Z,1.85
2022-08-12T01:40:35.754Z,1.44
2022-08-12T01:41:06.988Z,2.89
2022-08-12T01:42:10.488Z,2.84
2022-08-12T01:43:13.472Z,3.46
2022-08-12T01:44:16.331Z,1.87
2022-08-12T01:45:21.355Z,2.66
2022-08-12T01:46:24.338Z,3.34
2022-08-12T01:47:27.708Z,1.38
2022-08-12T01:48:30.816Z,1.60
2022-08-12T01:49:34.380Z,3.17
2022-08-12T01:50:37.669Z,2.28
2022-08-12T01:52:20.574Z,2.39
2022-08-12T01:52:45.581Z,1.46
2022-08-12T01:53:50.867Z,1.95
2022-08-12T01:54:53.467Z,2.34
2022-08-12T01:55:56.648Z,1.63
2022-08-12T01:56:59.745Z,1.88
2022-08-12T01:58:02.602Z,1.69
2022-08-12T01:59:05.899Z,1.22
2022-08-12T02:00:10.724Z,1.51
2022-08-12T02:01:13.762Z,2.18
2022-08-12T02:02:16.798Z,1.35
2022-08-12T02:03:19.787Z,2.32
2022-08-12T02:04:22.921Z,1.40
2022-08-12T02:05:26.624Z,1.24
2022-08-12T02:06:30.008Z,1.88
2022-08-12T02:07:32.875Z,2.33
2022-08-12T02:08:35.855Z,2.75
2022-08-12T02:09:38.624Z,3.01
2022-08-12T02:10:49.093Z,2.26
2022-08-12T02:11:45.810Z,1.71
2022-08-12T02:12:48.781Z,1.18
2022-08-12T02:13:51.918Z,1.36
2022-08-12T02:14:54.737Z,1.48
2022-08-12T02:15:57.832Z,1.72
2022-08-12T02:17:00.895Z,1.98
2022-08-12T02:18:03.881Z,3.19
2022-08-12T02:19:13.100Z,2.85
2022-08-12T02:20:11.484Z,1.93
2022-08-12T02:21:14.033Z,2.66
2022-08-12T02:22:16.726Z,2.48
2022-08-12T02:23:19.792Z,1.64
2022-08-12T02:24:22.554Z,1.53
2022-08-12T02:25:27.061Z,2.00
2022-08-12T02:26:29.938Z,2.43
2022-08-12T02:27:33.220Z,3.08
2022-08-12T02:28:36.013Z,4.27
2022-08-12T02:29:38.777Z,2.75
2022-08-12T02:30:42.406Z,3.73
2022-08-12T02:31:45.266Z,3.29
2022-08-12T02:32:47.903Z,3.60
2022-08-12T02:33:50.886Z,5.12
2022-08-12T02:34:53.567Z,5.86
2022-08-12T02:35:56.533Z,5.36
2022-08-12T02:37:02.580Z,7.80
2022-08-12T02:38:04.022Z,6.25
2022-08-12T02:39:06.895Z,4.18
2022-08-12T02:40:09.673Z,3.11
2022-08-12T02:41:14.174Z,4.25
2022-08-12T02:42:17.150Z,3.81
2022-08-12T02:43:20.242Z,5.20
2022-08-12T02:44:23.311Z,6.57
2022-08-12T02:45:26.290Z,4.85
2022-08-12T02:46:29.575Z,4.42
2022-08-12T02:47:58.893Z,5.80
2022-08-12T02:48:36.863Z,4.75
2022-08-12T02:49:39.547Z,7.37
2022-08-12T02:50:42.110Z,5.17
2022-08-12T02:51:46.608Z,4.48
2022-08-12T02:52:49.381Z,4.57
2022-08-12T02:54:04.513Z,6.78
2022-08-12T02:54:56.265Z,6.79
2022-08-12T02:55:58.937Z,4.28
2022-08-12T02:57:01.705Z,4.48
2022-08-12T02:58:09.126Z,3.78
2022-08-12T02:59:08.571Z,5.51
2022-08-12T03:00:11.355Z,5.10
2022-08-12T03:01:14.183Z,6.87
2022-08-12T03:02:16.996Z,5.15
2022-08-12T03:03:19.772Z,5.38
2022-08-12T03:04:22.639Z,4.91
2022-08-12T03:05:25.243Z,5.41
2022-08-12T03:06:28.182Z,4.91
2022-08-12T03:07:55.759Z,5.22
2022-08-12T03:08:35.577Z,6.77
2022-08-12T03:09:59.345Z,4.67
2022-08-12T03:10:43.269Z,4.96
2022-08-12T03:11:48.728Z,4.68
2022-08-12T03:12:52.061Z,4.14
2022-08-12T03:13:55.272Z,4.12
2022-08-12T03:14:58.265Z,6.51
2022-08-12T03:16:01.336Z,6.38
2022-08-12T03:17:04.208Z,4.66
2022-08-12T03:18:27.111Z,5.99
2022-08-12T03:19:11.498Z,3.90
2022-08-12T03:20:14.170Z,3.78
2022-08-12T03:21:17.239Z,3.67
2022-08-12T03:22:21.544Z,3.63
2022-08-12T03:23:28.870Z,3.48
2022-08-12T03:24:28.738Z,4.86
2022-08-12T03:25:31.500Z,3.94
2022-08-12T03:26:34.368Z,5.22
2022-08-12T03:27:37.044Z,4.62
2022-08-12T03:28:39.921Z,3.87
2022-08-12T03:29:43.397Z,3.92
2022-08-12T03:30:47.004Z,3.66
2022-08-12T03:31:49.670Z,3.72
2022-08-12T03:32:52.801Z,5.99
2022-08-12T03:34:01.604Z,3.82
2022-08-12T03:35:00.141Z,4.01
2022-08-12T03:36:02.916Z,3.95
2022-08-12T03:37:05.788Z,5.05
2022-08-12T03:38:08.823Z,2.98
2022-08-12T03:39:13.239Z,4.09
2022-08-12T03:40:16.211Z,5.19
2022-08-12T03:41:19.118Z,8.11
2022-08-12T03:42:22.024Z,18.45
2022-08-12T03:43:25.377Z,4.39
2022-08-12T03:44:28.580Z,4.01
2022-08-12T03:45:31.543Z,9.46
2022-08-12T03:46:34.529Z,39.17
2022-08-12T03:47:37.304Z,4.83
2022-08-12T03:48:40.056Z,3.59
2022-08-12T03:49:42.943Z,7.22
2022-08-12T03:50:45.815Z,5.11
2022-08-12T03:51:48.389Z,4.12
2022-08-12T03:52:52.596Z,4.45
2022-08-12T03:53:55.571Z,4.49
2022-08-12T03:54:58.552Z,4.26
2022-08-12T03:56:01.530Z,5.45
2022-08-12T03:57:04.405Z,4.79
2022-08-12T03:58:07.174Z,4.65
2022-08-12T03:59:09.960Z,3.53
2022-08-12T04:00:24.154Z,5.95
2022-08-12T04:01:17.488Z,6.29
2022-08-12T04:02:20.301Z,3.64
2022-08-12T04:03:23.180Z,3.65
2022-08-12T04:04:25.858Z,4.86
2022-08-12T04:05:54.561Z,5.62
2022-08-12T04:06:34.863Z,4.46
2022-08-12T04:07:37.131Z,4.55
2022-08-12T04:08:41.238Z,4.88
2022-08-12T04:09:43.915Z,5.73
2022-08-12T04:10:46.688Z,4.74
2022-08-12T04:11:49.354Z,3.30
2022-08-12T04:12:52.122Z,4.10
2022-08-12T04:13:54.925Z,4.71
2022-08-12T04:14:57.672Z,5.04
2022-08-12T04:16:00.353Z,4.96
2022-08-12T04:17:03.207Z,4.94
2022-08-12T04:18:08.019Z,4.11
2022-08-12T04:19:10.601Z,4.35
2022-08-12T04:20:13.683Z,3.97
2022-08-12T04:21:16.657Z,5.02
2022-08-12T04:22:19.429Z,6.18
2022-08-12T04:23:22.520Z,4.92
2022-08-12T04:24:25.383Z,4.35
2022-08-12T04:25:28.048Z,2.79
2022-08-12T04:26:32.873Z,3.28
2022-08-12T04:27:35.538Z,4.43
2022-08-12T04:28:38.324Z,3.45
2022-08-12T04:30:29.000Z,3.36
2022-08-12T04:30:45.188Z,2.36
2022-08-12T04:31:47.966Z,2.67
2022-08-12T04:32:50.854Z,3.73
2022-08-12T04:33:53.609Z,2.61
2022-08-12T04:34:56.286Z,4.36
2022-08-12T04:35:58.950Z,3.21
2022-08-12T04:37:02.135Z,6.19
2022-08-12T04:38:04.800Z,8.45
2022-08-12T04:39:07.672Z,3.65
2022-08-12T04:40:10.344Z,3.55
2022-08-12T04:41:13.109Z,3.73
2022-08-12T04:42:15.785Z,3.64
2022-08-12T04:43:59.853Z,3.43
2022-08-12T04:44:22.876Z,4.79
2022-08-12T04:45:25.536Z,3.28
2022-08-12T04:46:33.619Z,4.68
2022-08-12T04:47:32.722Z,3.35
2022-08-12T04:48:35.497Z,3.75
2022-08-12T04:49:38.059Z,3.78
2022-08-12T04:50:40.831Z,3.69
2022-08-12T04:51:43.605Z,3.67
2022-08-12T04:52:48.008Z,3.64
2022-08-12T04:53:50.685Z,3.22
2022-08-12T04:54:53.350Z,3.08
2022-08-12T04:55:57.160Z,3.49
2022-08-12T04:57:03.756Z,2.86
2022-08-12T04:58:04.441Z,3.65
2022-08-12T04:59:07.225Z,4.05
2022-08-12T05:00:10.077Z,1.77
2022-08-12T05:01:13.066Z,2.08
2022-08-12T05:02:16.746Z,2.55
2022-08-12T05:03:20.558Z,2.19
2022-08-12T05:04:23.328Z,2.38
2022-08-12T05:05:26.401Z,2.68
2022-08-12T05:06:29.270Z,2.28
2022-08-12T05:07:32.249Z,2.92
2022-08-12T05:08:35.245Z,2.30
2022-08-12T05:10:00.284Z,1.95
2022-08-12T05:10:42.001Z,2.50
2022-08-12T05:11:53.827Z,2.82
2022-08-12T05:12:49.083Z,2.89
2022-08-12T05:13:51.860Z,1.95
2022-08-12T05:14:54.736Z,1.74
2022-08-12T05:16:04.432Z,1.45
2022-08-12T05:17:01.617Z,1.99
2022-08-12T05:18:20.324Z,3.19
2022-08-12T05:19:12.924Z,2.31
2022-08-12T05:20:14.330Z,1.79
2022-08-12T05:21:17.203Z,1.54
2022-08-12T05:22:19.872Z,1.25
2022-08-12T05:23:22.649Z,1.57
2022-08-12T05:24:25.309Z,3.35
2022-08-12T05:25:28.093Z,1.88
2022-08-12T05:26:30.963Z,2.13
2022-08-12T05:27:33.732Z,1.82
2022-08-12T05:28:36.498Z,1.58
2022-08-12T05:30:06.758Z,2.06
2022-08-12T05:30:43.586Z,2.51
2022-08-12T05:31:48.424Z,1.58
2022-08-12T05:32:50.785Z,2.42
2022-08-12T05:33:54.867Z,1.99
2022-08-12T05:34:58.260Z,2.69
2022-08-12T05:36:01.134Z,2.08
2022-08-12T05:37:04.112Z,1.69
2022-08-12T05:38:07.093Z,2.15
2022-08-12T05:39:10.437Z,2.52
2022-08-12T05:40:13.953Z,3.44
2022-08-12T05:41:17.253Z,2.06
2022-08-12T05:42:20.630Z,1.56
2022-08-12T05:43:25.547Z,1.84
2022-08-12T05:44:28.728Z,2.86
2022-08-12T05:45:31.830Z,2.81
2022-08-12T05:46:34.695Z,3.18
2022-08-12T05:47:53.015Z,1.92
2022-08-12T05:48:41.778Z,1.39
2022-08-12T05:49:44.342Z,2.23
2022-08-12T05:50:47.209Z,3.22
2022-08-12T05:51:49.993Z,2.81
2022-08-12T05:52:53.039Z,2.62
2022-08-12T05:53:57.071Z,3.01
2022-08-12T05:55:00.862Z,2.55
2022-08-12T05:56:04.154Z,3.60
2022-08-12T05:57:07.029Z,1.95
2022-08-12T05:58:09.605Z,3.45
2022-08-12T05:59:12.605Z,5.41
2022-08-12T06:00:15.341Z,1.79
2022-08-12T06:02:12.737Z,2.11
2022-08-12T06:02:31.278Z,1.54
2022-08-12T06:03:34.048Z,0.95
2022-08-12T06:04:36.776Z,1.74
2022-08-12T06:05:54.275Z,2.55
2022-08-12T06:06:43.867Z,2.06
2022-08-12T06:08:01.131Z,1.52
2022-08-12T06:08:50.834Z,1.88
2022-08-12T06:09:53.608Z,1.84
2022-08-12T06:10:56.475Z,1.43
2022-08-12T06:12:05.021Z,2.21
2022-08-12T06:13:04.271Z,1.97
2022-08-12T06:14:11.680Z,1.90
2022-08-12T06:15:11.459Z,1.87
2022-08-12T06:16:14.537Z,1.92
2022-08-12T06:17:17.410Z,3.64
2022-08-12T06:18:20.607Z,3.59
2022-08-12T06:19:23.474Z,2.32
2022-08-12T06:20:33.526Z,3.30
2022-08-12T06:21:31.886Z,1.93
2022-08-12T06:22:34.867Z,1.92
2022-08-12T06:23:42.325Z,2.04
2022-08-12T06:24:42.229Z,2.29
2022-08-12T06:25:45.415Z,2.82
2022-08-12T06:26:48.288Z,1.92
2022-08-12T06:28:07.962Z,2.57
2022-08-12T06:28:55.883Z,3.36
2022-08-12T06:30:06.838Z,4.05
2022-08-12T06:32:08.399Z,2.08
2022-08-12T06:33:22.350Z,2.89
2022-08-12T06:35:25.527Z,3.13
2022-08-12T06:35:26.382Z,3.17
2022-08-12T06:36:29.520Z,3.17
2022-08-12T06:37:31.575Z,3.44
2022-08-12T06:38:34.342Z,2.90
2022-08-12T06:39:37.609Z,3.58
2022-08-12T06:40:40.911Z,2.82
2022-08-12T06:42:02.511Z,2.32
2022-08-12T06:42:48.617Z,3.00
2022-08-12T06:44:06.431Z,3.82
2022-08-12T06:44:55.923Z,3.69
2022-08-12T06:45:58.588Z,3.09
2022-08-12T06:47:01.262Z,2.77
2022-08-12T06:48:03.924Z,3.61
2022-08-12T06:49:06.616Z,4.03
2022-08-12T06:50:09.364Z,2.55
2022-08-12T06:51:12.035Z,2.39
2022-08-12T06:52:14.807Z,2.46
2022-08-12T06:53:17.371Z,3.85
2022-08-12T06:54:29.830Z,4.78
2022-08-12T06:55:24.775Z,2.85
2022-08-12T06:58:06.551Z,3.37
2022-08-12T06:58:50.282Z,3.10
2022-08-12T06:59:52.963Z,2.89
2022-08-12T07:00:55.787Z,4.82
2022-08-12T07:01:58.493Z,3.75
2022-08-12T07:03:01.282Z,3.14
2022-08-12T07:04:33.327Z,2.53
2022-08-12T07:05:09.674Z,3.82
2022-08-12T07:06:12.964Z,3.21
2022-08-12T07:07:15.650Z,3.38
2022-08-12T07:08:18.310Z,3.34
2022-08-12T07:10:04.628Z,3.48
2022-08-12T07:10:25.358Z,3.16
2022-08-12T07:11:28.257Z,3.68
2022-08-12T07:12:31.136Z,3.67
2022-08-12T07:13:33.802Z,4.18
2022-08-12T07:14:40.681Z,3.60
2022-08-12T07:15:40.673Z,3.91
2022-08-12T07:16:43.655Z,3.02
2022-08-12T07:17:46.328Z,4.99
2022-08-12T07:18:50.540Z,3.60
2022-08-12T07:19:53.194Z,3.78
2022-08-12T07:20:55.865Z,4.49
2022-08-12T07:22:02.050Z,3.91
2022-08-12T07:23:02.953Z,3.57
2022-08-12T07:24:05.610Z,3.52
2022-08-12T07:25:08.397Z,4.12
2022-08-12T07:26:11.063Z,4.18
2022-08-12T07:27:15.576Z,4.72
2022-08-12T07:28:18.351Z,3.21
2022-08-12T07:29:21.117Z,3.62
2022-08-12T07:30:24.285Z,3.85
2022-08-12T07:31:27.086Z,3.98
2022-08-12T07:32:29.841Z,4.03
2022-08-12T07:33:32.633Z,4.08
2022-08-12T07:34:35.393Z,3.86
2022-08-12T07:35:37.964Z,4.98
2022-08-12T07:36:40.529Z,3.98
2022-08-12T07:37:43.304Z,4.14
2022-08-12T07:38:45.966Z,4.22
2022-08-12T07:39:50.811Z,4.24
2022-08-12T07:40:52.645Z,6.29
2022-08-12T07:41:55.348Z,4.91
2022-08-12T07:42:58.013Z,4.98
2022-08-12T07:44:04.546Z,3.45
2022-08-12T07:45:04.749Z,4.46
2022-08-12T07:46:07.521Z,2.94
2022-08-12T07:47:10.290Z,3.39
2022-08-12T07:48:14.601Z,4.27
2022-08-12T07:49:17.373Z,3.31
2022-08-12T07:50:23.785Z,4.71
2022-08-12T07:51:25.438Z,3.53
2022-08-12T07:52:28.454Z,4.01
2022-08-12T07:53:31.235Z,5.22
2022-08-12T07:54:34.006Z,4.40
2022-08-12T07:55:36.786Z,4.15
2022-08-12T07:56:39.543Z,5.28
2022-08-12T07:57:42.323Z,5.02
2022-08-12T07:58:47.145Z,5.15
2022-08-12T07:59:50.168Z,4.36
2022-08-12T08:00:53.499Z,3.94
2022-08-12T08:01:56.244Z,4.22
2022-08-12T08:02:59.640Z,4.89
2022-08-12T08:04:02.720Z,3.68
2022-08-12T08:05:05.593Z,5.67
2022-08-12T08:06:08.570Z,4.03
2022-08-12T08:07:12.980Z,4.85
2022-08-12T08:08:15.860Z,3.55
2022-08-12T08:09:18.939Z,4.48
2022-08-12T08:10:22.017Z,4.64
2022-08-12T08:11:25.294Z,4.04
2022-08-12T08:12:28.380Z,5.91
2022-08-12T08:13:31.862Z,4.68
2022-08-12T08:14:34.979Z,4.16
2022-08-12T08:16:02.879Z,3.85
2022-08-12T08:16:42.026Z,4.61
2022-08-12T08:17:45.009Z,4.75
2022-08-12T08:18:48.289Z,4.55
2022-08-12T08:20:04.102Z,3.22
2022-08-12T08:20:55.886Z,4.67
2022-08-12T08:21:58.804Z,3.90
2022-08-12T08:23:01.936Z,3.75
2022-08-12T08:24:05.463Z,3.61
2022-08-12T08:25:20.438Z,4.91
2022-08-12T08:26:12.921Z,4.76
2022-08-12T08:27:16.005Z,3.77
2022-08-12T08:28:18.888Z,4.28
2022-08-12T08:29:21.846Z,4.81
2022-08-12T08:30:24.938Z,3.78
2022-08-12T08:31:27.800Z,4.71
2022-08-12T08:32:30.788Z,3.98
2022-08-12T08:34:09.502Z,4.83
2022-08-12T08:34:54.698Z,5.57
2022-08-12T08:35:46.438Z,4.97
2022-08-12T08:36:46.885Z,5.96
2022-08-12T08:37:51.191Z,6.35
2022-08-12T08:38:58.135Z,5.99
2022-08-12T08:39:58.685Z,5.04
2022-08-12T08:41:01.966Z,4.89
2022-08-12T08:42:17.945Z,5.42
2022-08-12T08:43:09.657Z,4.65
2022-08-12T08:44:12.754Z,4.72
2022-08-12T08:45:15.827Z,5.42
2022-08-12T08:46:19.119Z,5.38
2022-08-12T08:47:22.084Z,4.93
2022-08-12T08:48:25.261Z,6.87
2022-08-12T08:49:28.348Z,5.54
2022-08-12T08:50:31.521Z,4.86
2022-08-12T08:51:34.605Z,4.86
2022-08-12T08:52:40.064Z,5.38
2022-08-12T08:53:41.992Z,6.93
2022-08-12T08:54:46.621Z,5.04
2022-08-12T08:56:04.588Z,5.71
2022-08-12T08:56:53.997Z,5.73
2022-08-12T08:57:56.971Z,5.55
2022-08-12T08:59:01.070Z,5.12
2022-08-12T09:00:04.049Z,5.75
2022-08-12T09:01:06.723Z,6.26
2022-08-12T09:02:09.755Z,6.01
2022-08-12T09:05:07.020Z,6.74
2022-08-12T09:05:10.073Z,6.78
2022-08-12T09:05:25.432Z,6.32
2022-08-12T09:06:37.501Z,4.61
2022-08-12T09:07:58.973Z,5.57
2022-08-12T09:08:35.032Z,5.35
2022-08-12T09:10:02.244Z,5.79
2022-08-12T09:10:45.194Z,5.72
2022-08-12T09:12:07.110Z,5.94
2022-08-12T09:12:54.950Z,4.70
2022-08-12T09:15:00.070Z,5.83
2022-08-12T09:16:02.731Z,5.75
2022-08-12T09:17:06.223Z,5.15
2022-08-12T09:18:09.507Z,5.77
2022-08-12T09:19:26.911Z,6.88
2022-08-12T09:20:16.489Z,6.09
2022-08-12T09:21:19.361Z,6.65
2022-08-12T09:22:22.443Z,6.42
2022-08-12T09:23:58.325Z,6.00
2022-08-12T09:24:31.894Z,5.36
2022-08-12T09:25:35.061Z,5.64
2022-08-12T09:26:46.319Z,6.19
2022-08-12T09:28:18.169Z,4.26
2022-08-12T09:30:10.897Z,5.68
2022-08-12T09:30:57.193Z,5.70
2022-08-12T09:32:07.413Z,5.89
2022-08-12T09:33:14.448Z,6.61
2022-08-12T09:34:29.456Z,5.15
2022-08-12T09:35:22.088Z,4.77
2022-08-12T09:36:30.611Z,5.62
2022-08-12T09:37:22.580Z,5.14
2022-08-12T09:38:29.096Z,5.44
2022-08-12T09:40:05.969Z,6.64
2022-08-12T09:40:57.611Z,6.40
2022-08-12T09:42:09.477Z,8.52
2022-08-12T09:42:54.207Z,9.27
2022-08-12T09:43:53.990Z,5.66
2022-08-12T09:45:18.510Z,4.81
2022-08-12T09:46:06.630Z,6.02
2022-08-12T09:47:01.633Z,7.69
2022-08-12T09:48:06.242Z,7.56
2022-08-12T09:50:27.680Z,5.84
2022-08-12T09:51:37.676Z,5.90
2022-08-12T09:52:34.836Z,6.41
2022-08-12T09:53:40.030Z,6.19
2022-08-12T09:54:43.279Z,6.47
2022-08-12T09:55:57.313Z,7.23
2022-08-12T09:57:02.725Z,5.75
2022-08-12T09:58:44.983Z,6.07
2022-08-12T09:59:02.334Z,5.45
2022-08-12T10:00:16.083Z,6.06
2022-08-12T10:01:15.442Z,6.39
2022-08-12T10:02:44.629Z,5.76
2022-08-12T10:03:32.648Z,5.72
2022-08-12T10:04:23.225Z,6.19
2022-08-12T10:06:19.663Z,5.78
2022-08-12T10:06:32.364Z,6.71
2022-08-12T10:07:39.912Z,5.17
2022-08-12T10:08:39.370Z,5.61
2022-08-12T10:09:57.589Z,8.09
2022-08-12T10:10:46.348Z,5.06
2022-08-12T10:12:11.840Z,6.23
2022-08-12T10:13:07.058Z,7.04
2022-08-12T10:13:59.378Z,6.41
2022-08-12T10:15:02.525Z,5.87
2022-08-12T10:16:06.054Z,5.62
2022-08-12T10:17:09.393Z,5.89
2022-08-12T10:18:13.548Z,5.93
2022-08-12T10:19:17.693Z,6.78
2022-08-12T10:20:20.611Z,6.99
2022-08-12T10:21:23.729Z,6.15
2022-08-12T10:22:39.307Z,5.35
2022-08-12T10:23:40.212Z,6.16
2022-08-12T10:24:35.690Z,5.60
2022-08-12T10:26:34.058Z,5.65
2022-08-12T10:26:42.885Z,6.32
2022-08-12T10:28:03.431Z,5.71
2022-08-12T10:29:02.595Z,6.17
2022-08-12T10:30:37.236Z,7.03
2022-08-12T10:31:01.599Z,5.43
2022-08-12T10:32:21.723Z,5.38
2022-08-12T10:33:18.173Z,5.48
2022-08-12T10:34:24.006Z,5.85
2022-08-12T10:35:18.579Z,5.43
2022-08-12T10:36:21.456Z,5.05
2022-08-12T10:38:36.088Z,5.56
2022-08-12T10:38:37.134Z,6.11
2022-08-12T10:40:01.114Z,5.60
2022-08-12T10:40:39.301Z,5.41
2022-08-12T10:41:58.075Z,5.67
2022-08-12T10:42:46.490Z,6.19
2022-08-12T10:43:55.635Z,6.11
2022-08-12T10:44:54.074Z,5.14
2022-08-12T10:45:58.211Z,5.56
2022-08-12T10:47:01.178Z,6.79
2022-08-12T10:48:23.108Z,6.65
2022-08-12T10:50:03.422Z,4.89
2022-08-12T10:50:35.462Z,6.42
2022-08-12T10:52:05.423Z,6.90
2022-08-12T10:52:34.470Z,6.45
2022-08-12T10:53:43.728Z,5.99
2022-08-12T10:54:29.976Z,5.21
2022-08-12T10:55:32.848Z,5.07
2022-08-12T10:56:37.466Z,4.84
2022-08-12T10:58:15.374Z,5.60
2022-08-12T10:58:47.737Z,6.08
2022-08-12T11:00:34.305Z,5.49
2022-08-12T11:01:50.182Z,5.17
2022-08-12T11:04:24.604Z,4.81
2022-08-12T11:04:25.348Z,5.41
2022-08-12T11:04:31.296Z,5.59
2022-08-12T11:07:05.151Z,5.22
2022-08-12T11:07:07.812Z,5.46
2022-08-12T11:08:35.127Z,5.40
2022-08-12T11:08:38.249Z,5.36
2022-08-12T11:09:56.050Z,7.42
2022-08-12T11:10:40.580Z,5.60
2022-08-12T11:12:34.547Z,5.80
2022-08-12T11:12:59.306Z,5.83
2022-08-12T11:13:52.550Z,6.15
2022-08-12T11:14:55.315Z,5.69
2022-08-12T11:16:19.856Z,6.79
2022-08-12T11:17:34.693Z,6.53
2022-08-12T11:18:19.193Z,6.74
2022-08-12T11:19:22.517Z,6.60
2022-08-12T11:20:30.877Z,6.46
2022-08-12T11:21:56.326Z,6.18
2022-08-12T11:22:34.319Z,5.97
2022-08-12T11:23:37.771Z,5.81
2022-08-12T11:24:40.437Z,6.44
2022-08-12T11:25:57.701Z,6.17
2022-08-12T11:26:49.205Z,6.31
2022-08-12T11:27:52.131Z,5.23
2022-08-12T11:28:59.234Z,5.44
2022-08-12T11:30:05.623Z,6.39
2022-08-12T11:31:03.627Z,7.32
2022-08-12T11:32:06.501Z,6.15
2022-08-12T11:33:11.941Z,5.63
2022-08-12T11:34:51.505Z,6.45
2022-08-12T11:35:18.191Z,5.81
2022-08-12T11:36:21.771Z,5.15
2022-08-12T11:37:26.438Z,6.78
2022-08-12T11:38:29.550Z,6.30
2022-08-12T11:40:36.730Z,6.14
2022-08-12T11:41:43.124Z,6.55
2022-08-12T11:42:46.347Z,6.31
2022-08-12T11:43:50.766Z,6.84
2022-08-12T11:44:54.071Z,7.36
2022-08-12T11:45:56.901Z,6.28
2022-08-12T11:46:59.615Z,5.90
2022-08-12T11:48:02.592Z,5.99
2022-08-12T11:49:05.363Z,7.71
2022-08-12T11:50:08.243Z,6.74
2022-08-12T11:51:12.650Z,6.43
2022-08-12T11:52:17.230Z,7.27
2022-08-12T11:53:56.596Z,7.41
2022-08-12T11:54:25.071Z,6.32
2022-08-12T11:55:29.505Z,6.49
2022-08-12T11:56:38.550Z,6.64
2022-08-12T11:58:18.384Z,7.56
2022-08-12T12:02:02.558Z,7.86
2022-08-12T12:02:58.693Z,6.39
2022-08-12T12:04:01.490Z,6.19
2022-08-12T12:05:04.978Z,5.87
2022-08-12T12:06:08.466Z,7.45
2022-08-12T12:07:11.954Z,6.70
2022-08-12T12:08:40.523Z,6.80
2022-08-12T12:09:21.187Z,6.00
2022-08-12T12:10:25.600Z,7.16
2022-08-12T12:11:49.162Z,6.55
2022-08-12T12:12:34.319Z,7.57
2022-08-12T12:14:08.101Z,7.13
2022-08-12T12:14:42.325Z,7.09
2022-08-12T12:15:47.382Z,6.98
2022-08-12T12:16:50.927Z,8.05
2022-08-12T12:17:55.071Z,7.32
2022-08-12T12:18:57.919Z,7.09
2022-08-12T12:20:00.790Z,8.16
2022-08-12T12:21:03.969Z,7.49
2022-08-12T12:22:06.748Z,9.85
2022-08-12T12:23:28.684Z,6.99
2022-08-12T12:24:14.141Z,7.88
2022-08-12T12:25:19.824Z,8.09
2022-08-12T12:26:34.877Z,8.34
2022-08-12T12:27:39.360Z,7.13
2022-08-12T12:28:38.061Z,7.78
2022-08-12T12:30:18.523Z,7.13
2022-08-12T12:30:41.015Z,7.22
2022-08-12T12:32:10.988Z,8.24
2022-08-12T12:32:53.427Z,8.39
2022-08-12T12:33:57.205Z,7.71
2022-08-12T12:35:13.958Z,7.99
2022-08-12T12:36:17.020Z,9.12
2022-08-12T12:37:07.583Z,7.89
2022-08-12T12:38:12.527Z,7.54
2022-08-12T12:39:15.712Z,8.04
2022-08-12T12:40:20.305Z,8.39
2022-08-12T12:41:48.170Z,7.82
2022-08-12T12:42:45.446Z,8.11
2022-08-12T12:43:43.661Z,8.87
2022-08-12T12:44:41.916Z,8.07
2022-08-12T12:45:44.656Z,7.55
2022-08-12T12:46:45.644Z,7.89
2022-08-12T12:47:48.513Z,8.98
2022-08-12T12:48:51.385Z,9.37
2022-08-12T12:49:54.378Z,7.45
2022-08-12T12:50:57.547Z,7.29
2022-08-12T12:52:18.623Z,8.28
2022-08-12T12:53:04.838Z,7.91
2022-08-12T12:54:10.000Z,7.91
2022-08-12T12:55:11.706Z,8.04
2022-08-12T12:56:16.026Z,7.04
2022-08-12T12:57:35.868Z,7.62
2022-08-12T12:58:23.298Z,8.60
2022-08-12T12:59:33.758Z,7.48
2022-08-12T13:00:30.487Z,8.24
2022-08-12T13:01:38.299Z,7.71
2022-08-12T13:02:37.676Z,8.73
2022-08-12T13:03:49.484Z,9.77
2022-08-12T13:04:44.857Z,8.42
2022-08-12T13:05:53.728Z,9.03
2022-08-12T13:06:53.473Z,10.07
2022-08-12T13:08:01.384Z,7.93
2022-08-12T13:09:02.485Z,8.37
2022-08-12T13:10:05.061Z,8.35
2022-08-12T13:11:07.942Z,9.26
2022-08-12T13:12:10.850Z,10.13
2022-08-12T13:14:06.834Z,9.26
2022-08-12T13:14:28.659Z,7.81
2022-08-12T13:15:43.158Z,9.92
2022-08-12T13:16:27.542Z,8.76
2022-08-12T13:17:45.094Z,8.11
2022-08-12T13:18:35.027Z,7.77
2022-08-12T13:19:43.409Z,7.88
2022-08-12T13:20:43.197Z,8.33
2022-08-12T13:21:46.104Z,8.60
2022-08-12T13:22:48.987Z,9.83
2022-08-12T13:23:53.464Z,10.85
2022-08-12T13:24:57.172Z,9.42
2022-08-12T13:26:00.163Z,10.22
2022-08-12T13:27:02.934Z,11.14
2022-08-12T13:28:05.936Z,10.23
2022-08-12T13:29:11.678Z,9.30
2022-08-12T13:30:14.342Z,9.66
2022-08-12T13:31:18.734Z,9.59
2022-08-12T13:32:31.497Z,8.25
2022-08-12T13:33:28.500Z,8.94
2022-08-12T13:34:34.521Z,7.97
2022-08-12T13:36:04.979Z,8.29
2022-08-12T13:36:39.562Z,9.09
2022-08-12T13:37:43.971Z,8.34
2022-08-12T13:38:54.178Z,8.34
2022-08-12T13:39:51.850Z,9.16
2022-08-12T13:40:56.082Z,7.90
2022-08-12T13:41:58.747Z,10.27
2022-08-12T13:43:02.106Z,10.32
2022-08-12T13:44:05.109Z,8.68
2022-08-12T13:45:08.090Z,7.88
2022-08-12T13:46:12.263Z,8.50
2022-08-12T13:47:19.615Z,9.06
2022-08-12T13:48:20.296Z,9.04
2022-08-12T13:49:54.666Z,8.20
2022-08-12T13:50:27.888Z,9.24
2022-08-12T13:51:41.218Z,9.79
2022-08-12T13:52:35.173Z,8.12
2022-08-12T13:53:54.770Z,8.62
2022-08-12T13:54:42.260Z,8.40
2022-08-12T13:55:44.921Z,7.96
2022-08-12T13:56:49.919Z,8.58
2022-08-12T13:57:52.003Z,7.61
2022-08-12T13:58:54.676Z,7.49
2022-08-12T14:00:00.870Z,7.65
2022-08-12T14:01:02.063Z,7.27
2022-08-12T14:02:04.732Z,8.60
2022-08-12T14:03:10.422Z,7.88
2022-08-12T14:04:13.281Z,6.76
2022-08-12T14:05:31.236Z,6.59
2022-08-12T14:06:20.563Z,6.69
2022-08-12T14:07:23.614Z,7.31
2022-08-12T14:08:28.125Z,8.39
2022-08-12T14:09:32.431Z,6.94
2022-08-12T14:10:36.945Z,6.77
2022-08-12T14:11:40.447Z,6.91
2022-08-12T14:12:54.507Z,7.26
2022-08-12T14:14:03.906Z,6.95
2022-08-12T14:14:53.363Z,6.97